Time;durP1;ratioP1;P1;durP2;ratioP2;P2;SDS_P1;SDS_P2;PMS_P1;PMS_P2;Temp;Humidity;BMP_temperature;BMP_pressure;BME280_temperature;BME280_humidity;BME280_pressure;Samples;Min_cycle;Max_cycle;Signal;HPM_P1;HPM_P2
2023/12/15 00:00:52;;;;;;;8.60;6.00;;;;;;;;;;5033348;28;20270;-79
2023/12/15 00:03:17;;;;;;;11.53;5.93;;;;;;;;;;5032185;28;20283;-79
2023/12/15 00:05:42;;;;;;;10.47;6.17;;;;;;;;;;5032313;28;20312;-79
2023/12/15 00:08:07;;;;;;;10.93;5.77;;;;;;;;;;5032809;28;20289;-80
2023/12/15 00:10:32;;;;;;;8.43;5.50;;;;;;;;;;5032769;28;20255;-79
2023/12/15 00:12:58;;;;;;;9.10;6.07;;;;;;;;;;5034086;28;20018;-79
2023/12/15 00:15:23;;;;;;;8.65;5.35;;;;;;;;;;5032055;28;20026;-79
2023/12/15 00:17:48;;;;;;;10.87;6.27;;;;;;;;;;5032932;28;20021;-79
2023/12/15 00:20:13;;;;;;;10.70;7.03;;;;;;;;;;5031433;28;20266;-79
2023/12/15 00:22:39;;;;;;;13.57;6.88;;;;;;;;;;5033040;28;20269;-79
2023/12/15 00:25:04;;;;;;;7.67;5.20;;;;;;;;;;5033433;28;20102;-79
2023/12/15 00:27:29;;;;;;;10.00;5.80;;;;;;;;;;5028927;28;20793;-79
2023/12/15 00:29:55;;;;;;;11.90;6.15;;;;;;;;;;5025918;28;20044;-79
2023/12/15 00:32:20;;;;;;;9.47;5.67;;;;;;;;;;5031593;28;20025;-79
2023/12/15 00:34:45;;;;;;;11.73;6.18;;;;;;;;;;5030397;28;20278;-79
2023/12/15 00:37:10;;;;;;;13.47;7.70;;;;;;;;;;5031142;28;20029;-79
2023/12/15 00:39:38;;;;;;;10.50;7.30;;;;;;;;;;5031315;28;20274;-79
2023/12/15 00:42:07;;;;;;;14.13;7.68;;;;;;;;;;5031797;28;20654;-80
2023/12/15 00:44:33;;;;;;;12.40;7.03;;;;;;;;;;5032931;28;20422;-80
2023/12/15 00:46:59;;;;;;;14.45;7.55;;;;;;;;;;5024669;28;20499;-80
2023/12/15 00:49:24;;;;;;;18.40;7.82;;;;;;;;;;5031596;28;20025;-80
2023/12/15 00:51:49;;;;;;;13.65;7.35;;;;;;;;;;5040462;28;20028;-80
2023/12/15 00:54:15;;;;;;;13.85;7.35;;;;;;;;;;5031465;28;20025;-79
2023/12/15 00:56:40;;;;;;;17.13;8.63;;;;;;;;;;5032804;28;20037;-79
2023/12/15 00:59:05;;;;;;;12.68;7.15;;;;;;;;;;5047531;28;20266;-79
2023/12/15 01:01:31;;;;;;;16.67;9.53;;;;;;;;;;5031405;28;20022;-79
2023/12/15 01:03:56;;;;;;;16.77;8.85;;;;;;;;;;5032732;28;20294;-79
2023/12/15 01:06:21;;;;;;;21.23;8.50;;;;;;;;;;5032133;28;21300;-79
2023/12/15 01:08:46;;;;;;;15.20;8.30;;;;;;;;;;5024029;28;20271;-79
2023/12/15 01:11:11;;;;;;;16.53;8.60;;;;;;;;;;5029769;28;20275;-79
2023/12/15 01:13:37;;;;;;;15.70;8.45;;;;;;;;;;5014808;28;20317;-79
2023/12/15 01:16:05;;;;;;;14.27;8.17;;;;;;;;;;5031383;28;20067;-80
2023/12/15 01:18:31;;;;;;;13.45;8.65;;;;;;;;;;5032154;28;20258;-79
2023/12/15 01:20:56;;;;;;;15.85;8.90;;;;;;;;;;5031010;28;20096;-80
2023/12/15 01:23:21;;;;;;;14.85;8.70;;;;;;;;;;5030771;28;20091;-80
2023/12/15 01:25:46;;;;;;;18.03;8.53;;;;;;;;;;5031021;28;20233;-80
2023/12/15 01:28:12;;;;;;;13.70;8.33;;;;;;;;;;5030809;28;20258;-79
2023/12/15 01:30:37;;;;;;;12.68;7.70;;;;;;;;;;5030539;28;20350;-80
2023/12/15 01:33:02;;;;;;;12.30;7.00;;;;;;;;;;5032387;28;20018;-79
2023/12/15 01:35:28;;;;;;;16.15;8.70;;;;;;;;;;5032649;28;20285;-79
2023/12/15 01:37:53;;;;;;;16.27;8.30;;;;;;;;;;5030819;28;20029;-79
2023/12/15 01:40:19;;;;;;;12.13;7.70;;;;;;;;;;5030940;28;20026;-79
2023/12/15 01:42:44;;;;;;;16.60;9.13;;;;;;;;;;5032680;28;20061;-79
2023/12/15 01:45:09;;;;;;;19.23;10.03;;;;;;;;;;5030664;28;20474;-79
2023/12/15 01:47:35;;;;;;;13.88;8.57;;;;;;;;;;5030619;28;20271;-79
2023/12/15 01:50:00;;;;;;;20.13;10.45;;;;;;;;;;5030871;28;20029;-79
2023/12/15 01:52:26;;;;;;;16.70;10.20;;;;;;;;;;5031432;28;20025;-80
2023/12/15 01:54:51;;;;;;;16.85;9.45;;;;;;;;;;5030928;28;20278;-80
2023/12/15 01:57:16;;;;;;;20.55;10.10;;;;;;;;;;5032207;28;20021;-79
2023/12/15 01:59:41;;;;;;;15.57;9.00;;;;;;;;;;5039962;28;20381;-79
2023/12/15 02:02:07;;;;;;;17.63;9.57;;;;;;;;;;5032050;28;20057;-79
2023/12/15 02:04:32;;;;;;;15.77;8.97;;;;;;;;;;5030696;28;20057;-79
2023/12/15 02:06:57;;;;;;;17.83;9.60;;;;;;;;;;5029518;28;20853;-80
2023/12/15 02:09:22;;;;;;;13.73;9.27;;;;;;;;;;5031261;28;20273;-79
2023/12/15 02:11:47;;;;;;;14.60;8.40;;;;;;;;;;5015072;28;20345;-80
2023/12/15 02:14:13;;;;;;;16.27;9.43;;;;;;;;;;5031514;28;20369;-79
2023/12/15 02:16:38;;;;;;;17.00;9.87;;;;;;;;;;5032793;28;20338;-79
2023/12/15 02:19:03;;;;;;;17.00;9.30;;;;;;;;;;5031205;28;20357;-79
2023/12/15 02:21:28;;;;;;;20.83;9.27;;;;;;;;;;5031250;28;20309;-79
2023/12/15 02:23:54;;;;;;;18.80;9.67;;;;;;;;;;5032008;28;20305;-79
2023/12/15 02:26:19;;;;;;;17.47;9.83;;;;;;;;;;5031450;28;20294;-80
2023/12/15 02:28:44;;;;;;;13.33;8.33;;;;;;;;;;5032209;28;20281;-80
2023/12/15 02:31:09;;;;;;;13.60;8.80;;;;;;;;;;5030568;28;20278;-79
2023/12/15 02:33:34;;;;;;;15.37;8.73;;;;;;;;;;5031564;28;20275;-80
2023/12/15 02:36:00;;;;;;;19.50;8.93;;;;;;;;;;5031837;28;20285;-79
2023/12/15 02:38:25;;;;;;;18.30;10.07;;;;;;;;;;5032828;28;20279;-79
2023/12/15 02:40:50;;;;;;;18.00;9.83;;;;;;;;;;5033586;28;20766;-79
2023/12/15 02:43:15;;;;;;;15.57;9.43;;;;;;;;;;5033627;28;20259;-80
2023/12/15 02:45:40;;;;;;;15.83;10.30;;;;;;;;;;5034993;28;20271;-80
2023/12/15 02:48:06;;;;;;;18.50;10.60;;;;;;;;;;5025964;28;20263;-79
2023/12/15 02:50:31;;;;;;;17.53;9.07;;;;;;;;;;5033496;28;20269;-79
2023/12/15 02:52:56;;;;;;;14.80;9.60;;;;;;;;;;5033145;28;20273;-79
2023/12/15 02:55:21;;;;;;;16.07;9.53;;;;;;;;;;5033688;28;20545;-79
2023/12/15 02:57:46;;;;;;;19.27;10.07;;;;;;;;;;5034980;28;20354;-79
2023/12/15 03:00:12;;;;;;;17.45;9.95;;;;;;;;;;5034389;28;20345;-80
2023/12/15 03:02:39;;;;;;;18.15;10.52;;;;;;;;;;5033655;28;20397;-80
2023/12/15 03:05:04;;;;;;;15.23;9.63;;;;;;;;;;5033531;28;20060;-79
2023/12/15 03:07:29;;;;;;;17.20;10.60;;;;;;;;;;5033259;28;20037;-80
2023/12/15 03:09:55;;;;;;;19.00;10.50;;;;;;;;;;5033615;28;20363;-80
2023/12/15 03:12:20;;;;;;;15.95;9.63;;;;;;;;;;5034750;28;20776;-79
2023/12/15 03:14:45;;;;;;;17.73;10.23;;;;;;;;;;5034405;28;20026;-79
2023/12/15 03:17:10;;;;;;;14.73;9.93;;;;;;;;;;5033367;28;20263;-79
2023/12/15 03:19:37;;;;;;;14.02;9.32;;;;;;;;;;5033345;28;20262;-79
2023/12/15 03:22:04;;;;;;;19.27;10.00;;;;;;;;;;5034400;28;20546;-79
2023/12/15 03:24:29;;;;;;;16.20;10.02;;;;;;;;;;5033325;28;20492;-79
2023/12/15 03:26:55;;;;;;;18.45;10.35;;;;;;;;;;5033972;28;20025;-80
2023/12/15 03:29:21;;;;;;;18.02;9.93;;;;;;;;;;5033326;28;20412;-79
2023/12/15 03:31:46;;;;;;;17.42;9.40;;;;;;;;;;5032955;28;20022;-79
2023/12/15 03:34:11;;;;;;;16.58;9.93;;;;;;;;;;5033942;28;20437;-79
2023/12/15 03:36:38;;;;;;;19.88;10.25;;;;;;;;;;5032734;28;20017;-79
2023/12/15 03:39:04;;;;;;;19.00;9.77;;;;;;;;;;5033865;28;20068;-79
2023/12/15 03:41:30;;;;;;;17.35;10.38;;;;;;;;;;5032562;28;20021;-80
2023/12/15 03:43:55;;;;;;;20.93;11.00;;;;;;;;;;5034208;28;20025;-80
2023/12/15 03:46:20;;;;;;;22.80;11.18;;;;;;;;;;5033776;28;20266;-80
2023/12/15 03:48:45;;;;;;;20.30;10.87;;;;;;;;;;5032670;28;20021;-80
2023/12/15 03:51:11;;;;;;;21.83;10.50;;;;;;;;;;5032652;28;20361;-79
2023/12/15 03:53:36;;;;;;;20.37;10.57;;;;;;;;;;5032260;28;20778;-80
2023/12/15 03:56:01;;;;;;;17.65;10.05;;;;;;;;;;5032489;28;20267;-79
2023/12/15 03:58:26;;;;;;;16.13;10.15;;;;;;;;;;5033523;28;20021;-79
2023/12/15 04:00:52;;;;;;;18.50;10.20;;;;;;;;;;5032845;28;20021;-79
2023/12/15 04:03:17;;;;;;;23.73;11.30;;;;;;;;;;5032496;28;20041;-80
2023/12/15 04:05:42;;;;;;;19.60;10.20;;;;;;;;;;5032012;28;20262;-79
2023/12/15 04:08:07;;;;;;;21.50;10.33;;;;;;;;;;5032322;28;20263;-80
2023/12/15 04:10:32;;;;;;;18.35;11.73;;;;;;;;;;5032667;28;20263;-79
2023/12/15 04:12:58;;;;;;;15.98;10.45;;;;;;;;;;5033108;28;20108;-79
2023/12/15 04:15:23;;;;;;;17.07;9.87;;;;;;;;;;5031424;28;20029;-79
2023/12/15 04:17:48;;;;;;;19.80;11.20;;;;;;;;;;5032013;28;20262;-80
2023/12/15 04:20:13;;;;;;;16.38;10.02;;;;;;;;;;5033477;28;20274;-79
2023/12/15 04:22:39;;;;;;;17.92;9.70;;;;;;;;;;5015749;28;20029;-79
2023/12/15 04:25:04;;;;;;;17.67;10.77;;;;;;;;;;5031678;28;20022;-80
2023/12/15 04:27:30;;;;;;;17.30;9.05;;;;;;;;;;5032094;28;20017;-79
2023/12/15 04:29:56;;;;;;;17.60;9.35;;;;;;;;;;5031883;28;20393;-79
2023/12/15 04:32:21;;;;;;;13.70;9.60;;;;;;;;;;5033052;28;20025;-79
2023/12/15 04:34:46;;;;;;;19.93;10.47;;;;;;;;;;5031611;28;20281;-79
2023/12/15 04:37:11;;;;;;;20.70;10.70;;;;;;;;;;5031280;28;20357;-80
2023/12/15 04:39:36;;;;;;;15.07;9.13;;;;;;;;;;5032008;28;20294;-79
2023/12/15 04:42:02;;;;;;;19.40;10.20;;;;;;;;;;5031758;28;20305;-79
2023/12/15 04:44:27;;;;;;;17.83;10.90;;;;;;;;;;5032741;28;20021;-80
2023/12/15 04:46:55;;;;;;;14.50;8.10;;;;;;;;;;5031838;28;20025;-80
2023/12/15 04:49:21;;;;;;;19.50;10.38;;;;;;;;;;5031723;28;20274;-79
2023/12/15 04:51:46;;;;;;;20.05;9.55;;;;;;;;;;5031511;28;20030;-79
2023/12/15 04:54:11;;;;;;;15.60;8.95;;;;;;;;;;5032747;28;20032;-80
2023/12/15 04:56:36;;;;;;;15.00;9.33;;;;;;;;;;5032954;28;20018;-79
2023/12/15 04:59:01;;;;;;;21.17;9.93;;;;;;;;;;5031104;28;20030;-80
2023/12/15 05:01:27;;;;;;;21.90;9.90;;;;;;;;;;5030953;28;20274;-79
2023/12/15 05:03:52;;;;;;;17.63;9.63;;;;;;;;;;5030730;28;20283;-79
2023/12/15 05:06:17;;;;;;;16.93;9.87;;;;;;;;;;5032844;28;20262;-79
2023/12/15 05:08:43;;;;;;;16.88;9.10;;;;;;;;;;5031368;28;20263;-80
2023/12/15 05:11:09;;;;;;;15.15;9.40;;;;;;;;;;5032247;28;20056;-79
2023/12/15 05:13:34;;;;;;;19.70;10.25;;;;;;;;;;5031210;28;20017;-80
2023/12/15 05:15:59;;;;;;;16.25;9.95;;;;;;;;;;5031964;28;20518;-79
2023/12/15 05:18:25;;;;;;;16.53;8.53;;;;;;;;;;5031005;28;20021;-79
2023/12/15 05:20:50;;;;;;;13.47;8.77;;;;;;;;;;5031312;28;20071;-79
2023/12/15 05:23:15;;;;;;;15.52;8.73;;;;;;;;;;5023845;28;20258;-80
2023/12/15 05:25:40;;;;;;;14.77;9.30;;;;;;;;;;5032463;28;20036;-80
2023/12/15 05:28:05;;;;;;;14.98;9.43;;;;;;;;;;5031249;28;20029;-80
2023/12/15 05:30:31;;;;;;;18.33;9.77;;;;;;;;;;5030315;28;20429;-78
2023/12/15 05:32:56;;;;;;;13.68;9.07;;;;;;;;;;5030345;28;20262;-80
2023/12/15 05:35:21;;;;;;;15.18;9.55;;;;;;;;;;5032245;28;20068;-80
2023/12/15 05:37:49;;;;;;;17.17;9.07;;;;;;;;;;5030651;28;20501;-78
2023/12/15 05:40:15;;;;;;;18.27;10.05;;;;;;;;;;5031023;28;20319;-80
2023/12/15 05:42:41;;;;;;;17.27;8.88;;;;;;;;;;5030867;28;20071;-81
2023/12/15 05:45:06;;;;;;;17.15;9.63;;;;;;;;;;5027458;28;20432;-80
2023/12/15 05:47:31;;;;;;;13.13;8.50;;;;;;;;;;5029885;28;20021;-80
2023/12/15 05:49:56;;;;;;;17.23;9.37;;;;;;;;;;5030200;28;20017;-80
2023/12/15 05:52:22;;;;;;;14.70;8.80;;;;;;;;;;5031239;28;20378;-80
2023/12/15 05:54:47;;;;;;;16.73;9.38;;;;;;;;;;5031174;28;20025;-80
2023/12/15 05:57:12;;;;;;;15.77;9.23;;;;;;;;;;5029948;28;20018;-80
2023/12/15 05:59:37;;;;;;;13.50;8.57;;;;;;;;;;5030514;28;20278;-80
2023/12/15 06:02:03;;;;;;;14.37;8.33;;;;;;;;;;5031222;28;20285;-80
2023/12/15 06:04:28;;;;;;;17.52;9.35;;;;;;;;;;5032670;28;20275;-80
2023/12/15 06:06:53;;;;;;;20.50;9.80;;;;;;;;;;5031578;28;20072;-80
2023/12/15 06:09:18;;;;;;;16.35;9.40;;;;;;;;;;5031595;28;20028;-80
2023/12/15 06:11:44;;;;;;;16.15;8.77;;;;;;;;;;5032774;28;20477;-80
2023/12/15 06:14:09;;;;;;;12.23;8.15;;;;;;;;;;5036322;28;20021;-80
2023/12/15 06:16:35;;;;;;;13.75;8.52;;;;;;;;;;5035263;28;20017;-80
2023/12/15 06:19:01;;;;;;;15.88;8.95;;;;;;;;;;5035149;28;20094;-80
2023/12/15 06:21:26;;;;;;;17.58;8.30;;;;;;;;;;5036512;28;20469;-80
2023/12/15 06:23:52;;;;;;;21.17;8.52;;;;;;;;;;5035150;28;20021;-80
2023/12/15 06:26:18;;;;;;;15.45;8.20;;;;;;;;;;5036670;28;20025;-80
2023/12/15 06:28:44;;;;;;;10.00;7.35;;;;;;;;;;5036381;28;20041;-80
2023/12/15 06:31:09;;;;;;;12.57;8.97;;;;;;;;;;5035021;28;20017;-80
2023/12/15 06:33:34;;;;;;;13.13;7.90;;;;;;;;;;5036448;28;20568;-80
2023/12/15 06:35:59;;;;;;;11.90;7.57;;;;;;;;;;5034974;28;20598;-80
2023/12/15 06:38:24;;;;;;;14.93;7.80;;;;;;;;;;5036187;28;20733;-80
2023/12/15 06:40:50;;;;;;;18.30;7.83;;;;;;;;;;5036103;28;20249;-80
2023/12/15 06:43:15;;;;;;;14.87;7.93;;;;;;;;;;5036020;28;20285;-80
2023/12/15 06:45:40;;;;;;;14.53;7.37;;;;;;;;;;5035961;28;20266;-80
2023/12/15 06:48:05;;;;;;;13.40;7.80;;;;;;;;;;5036003;28;20308;-80
2023/12/15 06:50:30;;;;;;;10.37;7.23;;;;;;;;;;5034636;28;20255;-80
2023/12/15 06:52:56;;;;;;;15.45;7.45;;;;;;;;;;5034611;28;20255;-80
2023/12/15 06:55:22;;;;;;;15.80;8.10;;;;;;;;;;5034512;28;20021;-80
2023/12/15 06:57:47;;;;;;;15.23;8.20;;;;;;;;;;5035785;28;20338;-79
2023/12/15 07:00:12;;;;;;;11.63;6.97;;;;;;;;;;5034485;28;20018;-80
2023/12/15 07:02:38;;;;;;;15.70;8.10;;;;;;;;;;5035748;28;20239;-79
2023/12/15 07:05:03;;;;;;;12.70;8.23;;;;;;;;;;5034092;28;20107;-80
2023/12/15 07:07:28;;;;;;;11.88;7.40;;;;;;;;;;5035580;28;20021;-80
2023/12/15 07:09:54;;;;;;;13.20;8.18;;;;;;;;;;5034318;28;20485;-80
2023/12/15 07:12:19;;;;;;;13.00;7.23;;;;;;;;;;5034244;28;20022;-80
2023/12/15 07:14:44;;;;;;;12.73;7.50;;;;;;;;;;5034108;28;20270;-80
2023/12/15 07:17:09;;;;;;;16.50;7.77;;;;;;;;;;5034142;28;20017;-80
2023/12/15 07:19:34;;;;;;;15.20;7.30;;;;;;;;;;5034105;28;20258;-79
2023/12/15 07:22:00;;;;;;;11.33;7.97;;;;;;;;;;5035287;28;20243;-80
2023/12/15 07:24:25;;;;;;;11.90;6.90;;;;;;;;;;5034833;28;20250;-80
2023/12/15 07:26:50;;;;;;;12.25;6.95;;;;;;;;;;5035314;28;20246;-79
2023/12/15 07:29:16;;;;;;;14.63;7.00;;;;;;;;;;5033904;28;20525;-80
2023/12/15 07:31:41;;;;;;;13.73;7.03;;;;;;;;;;5035166;28;20026;-80
2023/12/15 07:34:06;;;;;;;12.30;6.20;;;;;;;;;;5033830;28;20022;-80
2023/12/15 07:36:31;;;;;;;15.85;7.78;;;;;;;;;;5033779;28;20584;-79
2023/12/15 07:38:57;;;;;;;13.65;6.45;;;;;;;;;;5033772;28;20052;-80
2023/12/15 07:41:22;;;;;;;11.30;6.20;;;;;;;;;;5033688;28;20382;-80
2023/12/15 07:43:47;;;;;;;11.20;5.83;;;;;;;;;;5034941;28;20473;-80
2023/12/15 07:46:17;;;;;;;11.77;5.97;;;;;;;;;;5033620;28;20250;-80
2023/12/15 07:48:42;;;;;;;9.10;4.65;;;;;;;;;;5034914;28;20275;-80
2023/12/15 07:51:14;;;;;;;13.10;6.07;;;;;;;;;;5033585;28;20434;-80
2023/12/15 07:53:39;;;;;;;14.30;5.63;;;;;;;;;;5034699;28;20722;-80
2023/12/15 07:56:06;;;;;;;13.07;5.23;;;;;;;;;;5033479;28;20075;-80
2023/12/15 07:58:31;;;;;;;13.20;4.78;;;;;;;;;;5034660;28;20254;-80
2023/12/15 08:00:56;;;;;;;12.83;4.70;;;;;;;;;;5034593;28;20369;-80
2023/12/15 08:03:22;;;;;;;10.13;4.97;;;;;;;;;;5033056;28;20282;-80
2023/12/15 08:05:47;;;;;;;12.98;5.78;;;;;;;;;;5033191;28;20409;-80
2023/12/15 08:08:12;;;;;;;10.57;4.87;;;;;;;;;;5034555;28;20025;-80
2023/12/15 08:10:37;;;;;;;8.07;5.17;;;;;;;;;;5033199;28;20259;-80
2023/12/15 08:13:02;;;;;;;9.30;4.87;;;;;;;;;;5034413;28;20018;-80
2023/12/15 08:15:28;;;;;;;12.82;5.45;;;;;;;;;;5032995;28;20267;-80
2023/12/15 08:17:53;;;;;;;13.77;5.67;;;;;;;;;;5033017;28;20025;-80
2023/12/15 08:20:18;;;;;;;9.07;5.67;;;;;;;;;;5032980;28;20285;-80
2023/12/15 08:22:44;;;;;;;15.00;5.20;;;;;;;;;;5032925;28;20262;-80
2023/12/15 08:25:09;;;;;;;12.15;5.95;;;;;;;;;;5034181;28;20258;-80
2023/12/15 08:27:37;;;;;;;11.70;5.57;;;;;;;;;;5032880;28;20029;-80
2023/12/15 08:30:02;;;;;;;12.90;5.43;;;;;;;;;;5032769;28;20297;-80
2023/12/15 08:32:28;;;;;;;11.68;5.65;;;;;;;;;;5034080;28;20060;-80
2023/12/15 08:34:53;;;;;;;11.83;6.70;;;;;;;;;;5031866;28;20029;-80
2023/12/15 08:37:18;;;;;;;14.27;6.13;;;;;;;;;;5032638;28;20251;-80
2023/12/15 08:39:44;;;;;;;12.52;5.95;;;;;;;;;;5032639;28;20255;-80
2023/12/15 08:42:09;;;;;;;9.70;5.40;;;;;;;;;;5032595;28;20057;-80
2023/12/15 08:44:34;;;;;;;14.13;5.72;;;;;;;;;;5032572;28;20293;-80
2023/12/15 08:47:00;;;;;;;12.45;6.53;;;;;;;;;;5032464;28;20380;-80
2023/12/15 08:49:25;;;;;;;14.93;6.60;;;;;;;;;;5032424;28;20029;-80
2023/12/15 08:51:50;;;;;;;10.48;6.97;;;;;;;;;;5032401;28;20025;-80
2023/12/15 08:54:16;;;;;;;10.57;6.53;;;;;;;;;;5032336;28;20025;-80
2023/12/15 08:56:41;;;;;;;10.95;7.00;;;;;;;;;;5032372;28;20242;-80
2023/12/15 08:59:06;;;;;;;14.10;6.47;;;;;;;;;;5032354;28;20350;-80
2023/12/15 09:01:33;;;;;;;12.50;8.07;;;;;;;;;;5033550;28;20243;-80
2023/12/15 09:03:58;;;;;;;15.18;8.30;;;;;;;;;;5033256;28;20041;-80
2023/12/15 09:06:24;;;;;;;13.77;7.20;;;;;;;;;;5032225;28;20026;-80
2023/12/15 09:08:49;;;;;;;12.98;7.28;;;;;;;;;;5033411;28;20258;-80
2023/12/15 09:11:15;;;;;;;14.65;8.05;;;;;;;;;;5032032;28;20030;-80
2023/12/15 09:13:40;;;;;;;16.25;8.63;;;;;;;;;;5032021;28;20474;-80
2023/12/15 09:16:05;;;;;;;17.45;9.27;;;;;;;;;;5031844;28;20385;-80
2023/12/15 09:18:31;;;;;;;17.42;8.13;;;;;;;;;;5032034;28;20017;-80
2023/12/15 09:20:56;;;;;;;20.65;10.10;;;;;;;;;;5031998;28;20445;-80
2023/12/15 09:23:21;;;;;;;17.27;8.77;;;;;;;;;;5033248;28;20022;-80
2023/12/15 09:25:47;;;;;;;18.58;9.38;;;;;;;;;;5031982;28;20259;-80
2023/12/15 09:28:12;;;;;;;17.00;9.50;;;;;;;;;;5031944;28;20416;-80
2023/12/15 09:30:38;;;;;;;15.67;8.93;;;;;;;;;;5015481;28;20041;-80
2023/12/15 09:33:03;;;;;;;14.43;8.67;;;;;;;;;;5031871;28;20266;-80
2023/12/15 09:35:28;;;;;;;16.13;8.68;;;;;;;;;;5033079;28;20278;-80
2023/12/15 09:37:53;;;;;;;14.13;8.43;;;;;;;;;;5031876;28;20028;-80
2023/12/15 09:40:20;;;;;;;17.80;8.52;;;;;;;;;;5033015;28;20238;-80
2023/12/15 09:42:46;;;;;;;22.20;8.98;;;;;;;;;;5031800;28;20025;-80
2023/12/15 09:45:11;;;;;;;15.18;7.60;;;;;;;;;;5031788;28;20056;-80
2023/12/15 09:47:37;;;;;;;12.90;7.32;;;;;;;;;;5034780;28;20545;-80
2023/12/15 09:50:03;;;;;;;14.25;7.28;;;;;;;;;;5037089;28;20021;-80
2023/12/15 09:52:30;;;;;;;15.38;8.05;;;;;;;;;;5037022;28;20021;-80
2023/12/15 09:54:56;;;;;;;19.08;8.35;;;;;;;;;;5036953;28;20512;-80
2023/12/15 09:57:21;;;;;;;15.00;8.47;;;;;;;;;;5036903;28;20017;-80
2023/12/15 09:59:47;;;;;;;12.80;7.70;;;;;;;;;;5035639;28;20251;-80
2023/12/15 10:02:12;;;;;;;10.95;6.28;;;;;;;;;;5036894;28;20469;-80
2023/12/15 10:04:37;;;;;;;12.80;7.20;;;;;;;;;;5036687;28;20041;-80
2023/12/15 10:07:02;;;;;;;13.93;7.90;;;;;;;;;;5035499;28;20238;-80
2023/12/15 10:09:28;;;;;;;14.30;7.50;;;;;;;;;;5036616;28;20286;-80
2023/12/15 10:11:53;;;;;;;12.05;7.47;;;;;;;;;;5036640;28;20108;-80
2023/12/15 10:14:19;;;;;;;11.35;6.78;;;;;;;;;;5035300;28;20489;-80
2023/12/15 10:16:45;;;;;;;16.95;7.40;;;;;;;;;;5035306;28;20017;-80
2023/12/15 10:19:10;;;;;;;10.93;6.88;;;;;;;;;;5036571;28;20018;-80
2023/12/15 10:21:36;;;;;;;11.40;6.18;;;;;;;;;;5036522;28;20017;-80
2023/12/15 10:24:18;;;;;;;10.65;6.50;;;;;;;;;;5036410;28;20026;-80
2023/12/15 10:26:43;;;;;;;17.13;6.27;;;;;;;;;;5035180;28;20028;-80
2023/12/15 10:29:08;;;;;;;12.32;6.05;;;;;;;;;;5036355;28;20251;-80
2023/12/15 10:31:37;;;;;;;10.10;5.65;;;;;;;;;;5035019;28;20022;-80
2023/12/15 10:34:03;;;;;;;11.85;5.70;;;;;;;;;;5036101;28;20037;-80
2023/12/15 10:36:29;;;;;;;10.30;5.70;;;;;;;;;;5034931;28;20049;-80
2023/12/15 10:38:54;;;;;;;11.35;5.45;;;;;;;;;;5034895;28;20044;-80
2023/12/15 10:41:20;;;;;;;8.90;5.03;;;;;;;;;;5034860;28;20448;-80
2023/12/15 10:43:45;;;;;;;11.88;5.30;;;;;;;;;;5034819;28;20104;-80
2023/12/15 10:46:11;;;;;;;12.75;5.18;;;;;;;;;;5036035;28;20053;-80
2023/12/15 10:48:38;;;;;;;10.05;5.28;;;;;;;;;;5034710;28;20013;-80
2023/12/15 10:51:04;;;;;;;13.18;5.10;;;;;;;;;;5034670;28;20072;-80
2023/12/15 10:53:31;;;;;;;11.82;5.80;;;;;;;;;;5034621;28;20497;-80
2023/12/15 10:55:56;;;;;;;13.80;5.90;;;;;;;;;;5035868;28;20029;-80
2023/12/15 10:58:21;;;;;;;10.75;5.70;;;;;;;;;;5034903;28;20018;-80
2023/12/15 11:00:47;;;;;;;8.88;5.07;;;;;;;;;;5035722;28;20017;-80
2023/12/15 11:03:13;;;;;;;10.02;5.68;;;;;;;;;;5035498;28;20025;-80
2023/12/15 11:05:40;;;;;;;9.98;5.28;;;;;;;;;;5034462;28;20029;-80
2023/12/15 11:08:06;;;;;;;8.85;5.35;;;;;;;;;;5035612;28;20028;-80
2023/12/15 11:10:31;;;;;;;12.57;6.55;;;;;;;;;;5035579;28;20017;-80
2023/12/15 11:12:57;;;;;;;9.93;5.82;;;;;;;;;;5035530;28;20499;-80
2023/12/15 11:15:22;;;;;;;11.23;5.23;;;;;;;;;;5034129;28;20074;-80
2023/12/15 11:17:49;;;;;;;11.25;5.57;;;;;;;;;;5035504;28;20280;-80
2023/12/15 11:20:20;;;;;;;8.88;5.55;;;;;;;;;;5035407;28;20019;-80
2023/12/15 11:22:52;;;;;;;10.82;5.50;;;;;;;;;;5034082;28;20536;-80
2023/12/15 11:25:21;;;;;;;11.18;5.75;;;;;;;;;;5035338;28;20037;-80
2023/12/15 11:28:07;;;;;;;12.52;5.07;;;;;;;;;;5035293;28;20028;-80
2023/12/15 11:30:40;;;;;;;14.55;5.28;;;;;;;;;;5033957;28;20066;-80
2023/12/15 11:33:26;;;;;;;9.07;5.50;;;;;;;;;;5035176;28;20018;-80
2023/12/15 11:35:52;;;;;;;10.52;5.38;;;;;;;;;;5035047;28;20023;-80
2023/12/15 11:38:19;;;;;;;10.07;4.90;;;;;;;;;;5033850;28;20013;-80
2023/12/15 11:40:45;;;;;;;10.15;4.50;;;;;;;;;;5035067;28;20428;-80
2023/12/15 11:43:10;;;;;;;12.10;5.80;;;;;;;;;;5034998;28;20021;-80
2023/12/15 11:45:35;;;;;;;8.43;4.88;;;;;;;;;;5033789;28;20021;-80
2023/12/15 11:48:00;;;;;;;9.48;4.85;;;;;;;;;;5031950;28;20035;-81
2023/12/15 11:50:26;;;;;;;10.43;5.13;;;;;;;;;;5017995;28;20032;-80
2023/12/15 11:52:51;;;;;;;7.80;5.13;;;;;;;;;;5019320;28;20269;-80
2023/12/15 11:55:19;;;;;;;11.55;6.50;;;;;;;;;;5030659;28;20306;-80
2023/12/15 11:57:45;;;;;;;11.05;6.28;;;;;;;;;;5038696;28;20457;-80
2023/12/15 12:00:13;;;;;;;14.53;6.20;;;;;;;;;;5037687;28;20021;-81
2023/12/15 12:02:39;;;;;;;9.90;6.50;;;;;;;;;;5033199;28;20274;-80
2023/12/15 12:05:07;;;;;;;14.20;6.83;;;;;;;;;;5032182;28;20409;-80
2023/12/15 12:07:32;;;;;;;18.98;6.50;;;;;;;;;;5032854;28;20269;-80
2023/12/15 12:09:58;;;;;;;9.65;5.70;;;;;;;;;;5033673;28;20021;-80
2023/12/15 12:12:23;;;;;;;12.85;5.40;;;;;;;;;;5032043;28;20500;-81
2023/12/15 12:14:48;;;;;;;8.00;5.37;;;;;;;;;;5033674;28;20109;-80
2023/12/15 12:17:13;;;;;;;9.25;5.32;;;;;;;;;;5031891;28;20291;-81
2023/12/15 12:19:40;;;;;;;13.40;5.47;;;;;;;;;;5032305;28;20076;-80
2023/12/15 12:22:08;;;;;;;9.35;5.18;;;;;;;;;;5031901;28;20497;-81
2023/12/15 12:24:35;;;;;;;12.05;5.13;;;;;;;;;;5031786;28;20026;-80
2023/12/15 12:27:00;;;;;;;11.90;5.72;;;;;;;;;;5033126;28;20109;-81
2023/12/15 12:29:29;;;;;;;10.90;5.50;;;;;;;;;;5033404;28;20032;-80
2023/12/15 12:31:54;;;;;;;6.80;4.82;;;;;;;;;;5031920;28;20789;-79
2023/12/15 12:34:19;;;;;;;13.50;6.40;;;;;;;;;;5031446;28;20025;-79
2023/12/15 12:36:45;;;;;;;7.60;4.85;;;;;;;;;;5033184;28;20025;-78
2023/12/15 12:39:10;;;;;;;10.00;5.90;;;;;;;;;;5033297;28;20043;-81
2023/12/15 12:41:35;;;;;;;11.00;5.10;;;;;;;;;;5031940;28;20869;-81
2023/12/15 12:44:00;;;;;;;7.93;5.07;;;;;;;;;;5033112;28;20296;-81
2023/12/15 12:46:26;;;;;;;9.00;5.13;;;;;;;;;;5014463;28;20297;-81
2023/12/15 12:48:51;;;;;;;8.67;4.83;;;;;;;;;;5031455;28;20404;-81
2023/12/15 12:51:17;;;;;;;9.18;4.95;;;;;;;;;;5030019;28;20822;-81
2023/12/15 12:53:42;;;;;;;6.07;4.20;;;;;;;;;;5029247;28;20497;-80
2023/12/15 12:56:10;;;;;;;10.77;4.20;;;;;;;;;;5030367;28;20013;-79
2023/12/15 12:58:35;;;;;;;7.38;3.65;;;;;;;;;;5027917;28;20263;-80
2023/12/15 13:01:01;;;;;;;10.77;4.23;;;;;;;;;;5027696;28;20358;-80
2023/12/15 13:03:27;;;;;;;10.07;4.93;;;;;;;;;;5046210;28;20279;-80
2023/12/15 13:05:52;;;;;;;14.33;5.40;;;;;;;;;;5030560;28;20041;-80
2023/12/15 13:08:18;;;;;;;10.52;5.03;;;;;;;;;;5028875;28;20758;-80
2023/12/15 13:10:43;;;;;;;12.77;4.80;;;;;;;;;;5031402;28;20100;-79
2023/12/15 13:13:08;;;;;;;10.75;4.80;;;;;;;;;;5027028;28;20021;-79
2023/12/15 13:15:34;;;;;;;11.10;5.25;;;;;;;;;;5023541;28;20076;-80
2023/12/15 13:17:59;;;;;;;10.95;5.05;;;;;;;;;;5031528;28;20086;-79
2023/12/15 13:20:25;;;;;;;11.43;5.68;;;;;;;;;;5030804;28;20017;-80
2023/12/15 13:22:50;;;;;;;9.65;4.85;;;;;;;;;;5030877;28;20075;-80
2023/12/15 13:25:15;;;;;;;9.73;4.95;;;;;;;;;;5024679;28;20030;-80
2023/12/15 13:27:41;;;;;;;12.13;4.77;;;;;;;;;;5027610;28;20036;-79
2023/12/15 13:30:09;;;;;;;15.48;4.85;;;;;;;;;;5030162;28;20274;-80
2023/12/15 13:32:34;;;;;;;8.77;4.20;;;;;;;;;;5031003;28;20030;-80
2023/12/15 13:35:00;;;;;;;9.18;4.78;;;;;;;;;;5045564;28;20588;-80
2023/12/15 13:37:25;;;;;;;7.90;4.77;;;;;;;;;;5029754;28;20111;-80
2023/12/15 13:39:50;;;;;;;8.48;4.22;;;;;;;;;;5027636;28;20298;-80
2023/12/15 13:42:16;;;;;;;9.80;4.53;;;;;;;;;;5023549;28;20022;-80
2023/12/15 13:44:41;;;;;;;9.23;4.25;;;;;;;;;;5044707;28;20316;-80
2023/12/15 13:47:07;;;;;;;7.43;4.47;;;;;;;;;;5031642;28;20030;-80
2023/12/15 13:49:32;;;;;;;8.55;4.93;;;;;;;;;;5029966;28;20025;-80
2023/12/15 13:51:58;;;;;;;7.25;4.65;;;;;;;;;;5030912;28;20026;-80
2023/12/15 13:54:24;;;;;;;7.20;5.00;;;;;;;;;;5031751;28;20026;-80
2023/12/15 13:56:50;;;;;;;7.22;4.15;;;;;;;;;;5046369;28;20024;-80
2023/12/15 13:59:15;;;;;;;7.25;4.80;;;;;;;;;;5030335;28;20044;-80
2023/12/15 14:01:40;;;;;;;8.47;4.73;;;;;;;;;;5030783;28;20053;-80
2023/12/15 14:04:08;;;;;;;13.57;4.83;;;;;;;;;;5029866;28;20299;-80
2023/12/15 14:06:33;;;;;;;9.90;4.32;;;;;;;;;;5029585;28;20328;-80
2023/12/15 14:08:59;;;;;;;6.38;4.13;;;;;;;;;;5030267;28;20021;-80
2023/12/15 14:11:25;;;;;;;6.05;3.50;;;;;;;;;;5030436;28;20394;-80
2023/12/15 14:13:50;;;;;;;5.22;3.55;;;;;;;;;;5046248;28;20037;-80
2023/12/15 14:16:17;;;;;;;5.88;3.35;;;;;;;;;;5029850;28;20018;-80
2023/12/15 14:18:42;;;;;;;4.78;2.92;;;;;;;;;;5029988;28;20053;-80
2023/12/15 14:21:07;;;;;;;5.03;2.95;;;;;;;;;;5030523;28;20090;-80